Time;durP1;ratioP1;P1;durP2;ratioP2;P2;SDS_P1;SDS_P2;PMS_P1;PMS_P2;Temp;Humidity;BMP_temperature;BMP_pressure;BME280_temperature;BME280_humidity;BME280_pressure;Samples;Min_cycle;Max_cycle;Signal;HPM_P1;HPM_P2
2022/07/11 00:02:12;;;;;;;3.77;1.93;;;18.70;97.20;;;19.32;94.85;98816.88;4927305;29;20514;-79
2022/07/11 00:04:43;;;;;;;2.00;1.37;;;18.60;97.30;;;19.32;95.32;98811.56;4927292;29;21275;-80
2022/07/11 00:07:15;;;;;;;3.97;1.93;;;18.60;97.30;;;19.27;96.07;98812.25;4928586;29;20549;-80
2022/07/11 00:09:46;;;;;;;3.33;1.70;;;18.40;97.60;;;19.29;95.73;98810.19;4927548;29;20873;-79
2022/07/11 00:12:16;;;;;;;1.53;1.43;;;18.50;97.50;;;19.27;96.43;98817.53;4926869;29;20490;-79
2022/07/11 00:14:46;;;;;;;3.40;1.60;;;18.50;97.50;;;19.24;96.99;98804.72;4928216;29;20473;-80
2022/07/11 00:17:15;;;;;;;7.30;1.77;;;18.50;97.40;;;19.18;97.31;98802.97;4926487;29;20470;-80
2022/07/11 00:19:46;;;;;;;2.80;1.40;;;18.50;97.50;;;19.17;97.59;98803.19;4927905;29;21294;-80
2022/07/11 00:22:16;;;;;;;7.90;1.63;;;18.40;97.60;;;19.16;97.83;98799.72;4927119;29;20565;-80
2022/07/11 00:24:48;;;;;;;2.37;1.30;;;18.50;97.60;;;19.17;97.75;98800.53;4928112;29;20466;-80
2022/07/11 00:27:17;;;;;;;2.37;1.50;;;18.40;97.70;;;19.16;98.10;98794.41;4928828;29;20514;-79
2022/07/11 00:29:46;;;;;;;2.13;1.30;;;18.50;97.70;;;19.14;98.45;98793.84;4929196;29;20526;-80
2022/07/11 00:32:16;;;;;;;4.07;1.73;;;18.50;97.70;;;19.08;98.85;98798.22;4926806;29;20501;-80
2022/07/11 00:34:45;;;;;;;2.10;1.43;;;18.30;97.90;;;19.06;99.06;98788.84;4928731;29;20470;-80
2022/07/11 00:37:16;;;;;;;2.60;1.40;;;18.40;97.90;;;19.05;99.94;98790.69;4928672;29;20478;-80
2022/07/11 00:39:48;;;;;;;2.77;1.43;;;18.30;98.00;;;19.00;100.00;98784.44;4930191;29;20467;-80
2022/07/11 00:42:18;;;;;;;3.20;1.70;;;18.30;98.00;;;18.98;100.00;98783.88;4930260;29;21178;-80
2022/07/11 00:44:50;;;;;;;4.23;1.60;;;18.30;98.10;;;18.96;100.00;98784.06;4930602;29;20541;-80
2022/07/11 00:47:21;;;;;;;2.50;1.60;;;18.30;98.20;;;18.92;100.00;98776.78;4929643;29;20439;-80
2022/07/11 00:49:51;;;;;;;7.37;1.80;;;18.30;98.20;;;18.78;100.00;98772.69;4931331;29;20506;-80
2022/07/11 00:52:21;;;;;;;6.73;1.60;;;18.20;98.50;;;18.73;100.00;98769.88;4929456;29;20727;-80
2022/07/11 00:54:52;;;;;;;4.33;1.60;;;18.10;98.50;;;18.72;100.00;98769.06;4925615;29;20529;-80
2022/07/11 00:57:22;;;;;;;2.43;1.70;;;18.10;98.60;;;18.63;100.00;98770.41;4931533;29;20489;-80
2022/07/11 00:59:54;;;;;;;3.57;1.80;;;18.00;98.70;;;18.63;100.00;98764.28;4930282;29;20522;-80
2022/07/11 01:02:24;;;;;;;2.07;1.60;;;18.00;98.80;;;18.58;100.00;98771.06;4929666;29;20541;-80
2022/07/11 01:04:54;;;;;;;4.50;1.70;;;18.00;98.80;;;18.51;100.00;98767.66;4927818;29;20965;-80
2022/07/11 01:07:24;;;;;;;2.23;1.53;;;17.90;98.90;;;18.50;100.00;98766.03;4927431;29;20467;-80
2022/07/11 01:09:56;;;;;;;3.30;1.60;;;17.90;98.90;;;18.48;100.00;98768.06;4927503;29;20464;-79
2022/07/11 01:12:27;;;;;;;2.03;1.50;;;17.90;98.90;;;18.51;100.00;98772.97;4926203;29;21011;-80
2022/07/11 01:14:59;;;;;;;2.47;1.60;;;17.80;99.00;;;18.54;100.00;98767.22;4928734;29;20463;-80
2022/07/11 01:17:30;;;;;;;1.50;1.40;;;17.80;99.00;;;18.57;100.00;98760.66;4926660;29;20557;-80
2022/07/11 01:20:00;;;;;;;2.23;1.60;;;17.90;98.80;;;18.59;100.00;98755.97;4927379;29;20462;-80
2022/07/11 01:22:37;;;;;;;5.53;1.50;;;17.90;98.80;;;18.62;100.00;98757.38;4927853;29;20472;-80
2022/07/11 01:25:10;;;;;;;6.30;1.80;;;18.00;98.70;;;18.62;100.00;98760.00;4927402;29;20466;-80
2022/07/11 01:27:42;;;;;;;8.80;1.97;;;18.00;98.70;;;18.64;100.00;98757.97;4927721;29;20538;-80
2022/07/11 01:30:12;;;;;;;2.90;1.43;;;17.90;98.80;;;18.69;100.00;98766.03;4925714;29;20474;-80
2022/07/11 01:32:43;;;;;;;3.20;1.43;;;17.90;98.70;;;18.63;100.00;98753.69;4927537;29;20467;-80
2022/07/11 01:35:14;;;;;;;6.20;1.50;;;17.80;98.70;;;18.65;100.00;98754.28;4926135;29;20489;-80
2022/07/11 01:37:45;;;;;;;7.93;1.70;;;17.80;98.90;;;18.67;100.00;98745.09;4927621;29;20550;-80
2022/07/11 01:40:16;;;;;;;6.37;2.13;;;17.90;98.80;;;18.69;100.00;98742.19;4926660;29;20967;-80
2022/07/11 01:42:46;;;;;;;4.50;1.73;;;17.90;98.70;;;18.69;100.00;98748.31;4927127;29;20867;-80
2022/07/11 01:45:17;;;;;;;6.10;2.20;;;18.00;98.70;;;18.71;100.00;98745.47;4926278;29;20486;-80
2022/07/11 01:47:46;;;;;;;2.50;1.77;;;18.00;98.70;;;18.72;100.00;98742.56;4927463;29;20474;-80
2022/07/11 01:50:16;;;;;;;3.07;1.90;;;18.00;98.60;;;18.73;100.00;98743.38;4927244;29;20473;-80
2022/07/11 01:52:45;;;;;;;4.00;1.77;;;17.90;98.70;;;18.76;100.00;98737.63;4929236;29;20886;-80
2022/07/11 01:55:17;;;;;;;3.90;1.80;;;18.00;98.70;;;18.77;100.00;98747.22;4929248;29;20482;-80
2022/07/11 01:57:49;;;;;;;2.07;1.40;;;18.00;98.80;;;18.79;100.00;98747.78;4928749;29;20533;-80
2022/07/11 02:00:20;;;;;;;5.90;1.50;;;17.90;98.80;;;18.80;100.00;98744.94;4927465;29;20469;-80
2022/07/11 02:02:49;;;;;;;5.63;2.03;;;17.90;98.70;;;18.81;100.00;98743.09;4925378;29;20888;-80
2022/07/11 02:05:19;;;;;;;3.40;1.70;;;18.00;98.80;;;18.82;100.00;98742.84;4925159;29;20487;-80
2022/07/11 02:10:38;;;;;;;7.10;2.00;;;18.00;99.00;;;18.86;100.00;98744.03;4927060;29;20505;-84
2022/07/11 02:13:07;;;;;;;5.30;1.63;;;17.90;99.20;;;18.87;100.00;98739.53;4930337;29;20513;-80
2022/07/11 02:15:37;;;;;;;1.60;1.33;;;17.90;99.30;;;18.87;100.00;98735.06;4930818;29;20498;-79
2022/07/11 02:18:08;;;;;;;5.30;1.63;;;17.90;99.30;;;18.89;100.00;98737.47;4931970;29;20486;-80
2022/07/11 02:20:37;;;;;;;2.70;1.70;;;17.90;99.10;;;18.89;100.00;98734.81;4929125;29;20462;-79
2022/07/11 02:23:07;;;;;;;5.83;1.63;;;18.00;99.20;;;18.90;100.00;98728.50;4932630;29;20466;-80
2022/07/11 02:25:39;;;;;;;4.37;2.00;;;18.00;99.20;;;18.92;100.00;98737.00;4929524;29;20868;-80
2022/07/11 02:28:10;;;;;;;2.23;1.40;;;18.00;99.30;;;18.91;100.00;98730.94;4927919;29;20470;-81
2022/07/11 02:30:43;;;;;;;2.83;1.60;;;18.00;99.10;;;18.91;100.00;98735.41;4931077;29;20494;-80
2022/07/11 02:33:15;;;;;;;2.67;1.63;;;18.00;99.20;;;18.92;100.00;98734.38;4932643;29;20466;-80
2022/07/11 02:35:46;;;;;;;5.27;1.50;;;18.00;99.40;;;18.93;100.00;98733.34;4930838;29;20463;-80
2022/07/11 02:38:16;;;;;;;2.70;1.53;;;17.90;99.30;;;18.92;100.00;98737.00;4931117;29;20470;-80
2022/07/11 02:40:47;;;;;;;4.53;1.70;;;17.90;99.20;;;18.92;100.00;98737.00;4933574;29;20525;-80
2022/07/11 02:43:17;;;;;;;2.83;1.50;;;18.00;99.20;;;18.90;100.00;98734.59;4930895;29;20451;-80
2022/07/11 02:45:47;;;;;;;3.40;1.80;;;18.00;99.40;;;18.90;100.00;98731.13;4931384;29;20470;-80
2022/07/11 02:48:18;;;;;;;2.17;1.83;;;17.90;99.60;;;18.89;100.00;98730.31;4928984;29;20534;-80
2022/07/11 02:50:47;;;;;;;2.10;1.90;;;17.90;99.50;;;18.90;100.00;98728.50;4929093;29;20466;-80
2022/07/11 02:53:16;;;;;;;2.80;1.83;;;17.90;99.60;;;18.91;100.00;98730.13;4930224;29;20477;-80
2022/07/11 02:55:48;;;;;;;2.50;1.50;;;17.90;99.60;;;18.90;100.00;98728.50;4931733;29;20470;-79
2022/07/11 02:58:18;;;;;;;4.90;1.50;;;17.90;99.60;;;18.90;100.00;98736.44;4930703;29;20518;-80
2022/07/11 03:00:48;;;;;;;1.67;1.43;;;17.90;99.60;;;18.90;100.00;98739.09;4931377;29;20497;-80
2022/07/11 03:03:18;;;;;;;3.87;1.73;;;17.90;99.50;;;18.89;100.00;98738.28;4930733;29;21060;-80
2022/07/11 03:05:48;;;;;;;2.80;1.50;;;17.90;99.60;;;18.88;100.00;98738.53;4929276;29;20466;-80
2022/07/11 03:08:17;;;;;;;2.33;1.77;;;17.90;99.50;;;18.86;100.00;98744.03;4928457;29;20470;-80
2022/07/11 03:10:48;;;;;;;6.90;1.90;;;17.80;99.70;;;18.86;100.00;98737.91;4931437;29;20538;-80
2022/07/11 03:13:19;;;;;;;2.93;1.70;;;17.80;99.70;;;18.86;100.00;98743.22;4929332;29;20513;-80
2022/07/11 03:15:49;;;;;;;2.23;1.67;;;17.80;99.80;;;18.84;100.00;98738.16;4928693;29;20470;-80
2022/07/11 03:18:25;;;;;;;6.03;1.50;;;17.80;99.80;;;18.83;100.00;98736.53;4930035;29;20931;-79
2022/07/11 03:20:57;;;;;;;3.67;1.63;;;17.80;99.80;;;18.82;100.00;98739.38;4931466;29;20501;-80
2022/07/11 03:23:28;;;;;;;1.60;1.50;;;17.80;99.90;;;18.80;100.00;98738.81;4930523;29;20534;-80
2022/07/11 03:25:59;;;;;;;3.20;1.60;;;17.80;99.90;;;18.77;100.00;98740.06;4929881;29;20969;-80
2022/07/11 03:28:33;;;;;;;2.93;1.33;;;17.70;99.90;;;18.74;100.00;98735.22;4928006;29;20470;-79
2022/07/11 03:31:04;;;;;;;4.50;2.00;;;17.70;99.90;;;18.74;100.00;98739.72;4934154;29;20497;-91
2022/07/11 03:33:34;;;;;;;7.10;4.00;;;17.70;99.90;;;18.72;100.00;98739.91;4936176;29;21000;-80
2022/07/11 03:36:05;;;;;;;3.20;1.77;;;17.70;99.90;;;18.71;100.00;98748.09;4930689;29;20470;-80
2022/07/11 03:38:34;;;;;;;2.63;2.10;;;17.80;99.90;;;18.69;100.00;98736.91;4928517;29;20462;-80
2022/07/11 03:41:05;;;;;;;2.60;1.80;;;17.80;99.90;;;18.68;100.00;98735.28;4928606;29;20963;-80
2022/07/11 03:43:35;;;;;;;2.80;1.43;;;17.70;99.90;;;18.65;100.00;98739.19;4926207;29;20467;-80
2022/07/11 03:46:06;;;;;;;1.50;1.40;;;17.70;99.90;;;18.64;100.00;98734.13;4927746;29;20466;-80
2022/07/11 03:48:36;;;;;;;14.00;4.20;;;17.70;99.90;;;18.63;100.00;98735.97;4932249;29;20458;-91
2022/07/11 03:51:08;;;;;;;3.60;2.63;;;17.70;99.90;;;18.64;100.00;98740.22;4921670;29;20486;-79
2022/07/11 03:53:37;;;;;;;3.40;2.40;;;17.70;99.90;;;18.65;100.00;98736.53;4930506;29;20552;-79
2022/07/11 03:56:10;;;;;;;2.97;1.90;;;17.70;99.90;;;18.64;100.00;98740.22;4929007;29;20973;-80
2022/07/11 03:58:41;;;;;;;5.23;1.63;;;17.70;99.90;;;18.64;100.00;98734.13;4927794;29;20522;-79
2022/07/11 04:01:12;;;;;;;2.60;1.40;;;17.60;99.90;;;18.61;100.00;98738.00;4932288;29;20458;-80
2022/07/11 04:03:42;;;;;;;7.27;2.57;;;17.70;99.90;;;18.60;100.00;98736.41;4930915;29;20443;-80
2022/07/11 04:06:12;;;;;;;2.60;1.73;;;17.70;99.90;;;18.60;100.00;98739.06;4930637;29;20454;-80
2022/07/11 04:08:42;;;;;;;2.43;1.70;;;17.70;99.90;;;18.57;100.00;98734.16;4929227;29;20454;-80
2022/07/11 04:11:14;;;;;;;4.83;1.80;;;17.60;99.90;;;18.56;100.00;98729.94;4928502;29;20512;-79
2022/07/11 04:13:44;;;;;;;2.87;1.50;;;17.60;99.90;;;18.56;100.00;98735.22;4927560;29;20533;-81
2022/07/11 04:16:15;;;;;;;3.67;2.50;;;17.60;99.90;;;18.55;100.00;98730.94;4953499;28;21046;-81
2022/07/11 04:18:44;;;;;;;4.10;1.77;;;17.60;99.90;;;18.55;100.00;98729.09;4924754;29;20501;-80
2022/07/11 04:21:15;;;;;;;2.23;2.03;;;17.70;99.90;;;18.55;100.00;98729.09;4928545;29;20462;-80
2022/07/11 04:23:45;;;;;;;1.87;1.57;;;17.60;99.90;;;18.57;100.00;98723.56;4929561;29;20443;-80
2022/07/11 04:26:17;;;;;;;4.83;1.80;;;17.60;99.90;;;18.58;100.00;98733.16;4929324;29;20473;-80
2022/07/11 04:28:46;;;;;;;6.80;1.93;;;17.60;99.90;;;18.58;100.00;98735.81;4930681;29;20546;-80
2022/07/11 04:31:15;;;;;;;2.07;1.87;;;17.70;99.90;;;18.56;100.00;98733.38;4929732;29;20577;-81
2022/07/11 04:33:44;;;;;;;2.50;1.70;;;17.70;99.90;;;18.55;100.00;98742.34;4930173;29;21222;-80
2022/07/11 04:36:15;;;;;;;5.27;1.53;;;17.70;99.90;;;18.56;100.00;98743.16;4929334;29;20458;-80
2022/07/11 04:38:45;;;;;;;2.50;1.60;;;17.70;99.90;;;18.56;100.00;98743.97;4931114;29;20514;-80
2022/07/11 04:41:16;;;;;;;3.80;2.13;;;17.70;99.90;;;18.56;100.00;98741.34;4928704;29;20443;-81
2022/07/11 04:43:45;;;;;;;2.43;1.70;;;17.70;99.90;;;18.55;100.00;98739.72;4928878;29;20454;-81
2022/07/11 04:46:14;;;;;;;3.20;2.03;;;17.60;99.90;;;18.56;100.00;98737.88;4929267;29;20490;-80
2022/07/11 04:48:44;;;;;;;3.10;2.13;;;17.70;99.90;;;18.58;100.00;98741.91;4926431;29;20960;-80
2022/07/11 04:51:17;;;;;;;2.87;1.70;;;17.70;99.90;;;18.63;100.00;98748.41;4928021;29;20498;-80
2022/07/11 04:53:49;;;;;;;2.60;1.77;;;17.70;99.90;;;18.66;100.00;98742.66;4928574;29;20489;-80
2022/07/11 04:56:21;;;;;;;2.37;1.83;;;17.70;99.90;;;18.67;100.00;98742.44;4926279;29;20510;-80
2022/07/11 04:58:51;;;;;;;3.13;1.83;;;17.80;99.90;;;18.68;100.00;98740.56;4926518;29;20832;-80
2022/07/11 05:01:23;;;;;;;5.50;2.07;;;17.80;99.90;;;18.70;100.00;98743.81;4926342;29;20474;-79
2022/07/11 05:03:52;;;;;;;3.63;2.30;;;17.80;99.90;;;18.69;100.00;98742.19;4926040;29;20494;-80
2022/07/11 05:06:22;;;;;;;4.00;2.03;;;17.90;99.90;;;18.70;100.00;98741.19;4926994;29;20480;-80
2022/07/11 05:08:54;;;;;;;5.10;2.10;;;17.80;99.90;;;18.72;100.00;98744.41;4927191;29;20554;-80
2022/07/11 05:11:26;;;;;;;5.50;2.13;;;17.90;99.90;;;18.73;100.00;98746.03;4924693;29;20581;-79
2022/07/11 05:14:04;;;;;;;7.13;3.00;;;17.90;99.90;;;18.76;100.00;98748.22;4907723;29;20467;-80
2022/07/11 05:16:35;;;;;;;4.77;2.07;;;17.90;99.90;;;18.79;100.00;98750.44;4926500;29;20510;-79
2022/07/11 05:19:06;;;;;;;2.67;2.10;;;18.00;99.90;;;18.78;100.00;98751.50;4907862;29;20498;-80
2022/07/11 05:21:36;;;;;;;2.70;1.67;;;18.10;99.90;;;18.79;100.00;98764.50;4925462;29;20510;-79
2022/07/11 05:24:07;;;;;;;2.10;1.60;;;18.10;99.90;;;18.81;100.00;98766.94;4927166;29;20471;-87
2022/07/11 05:26:39;;;;;;;13.70;7.33;;;18.10;99.90;;;18.84;100.00;98763.84;4927654;29;20473;-80
2022/07/11 05:29:09;;;;;;;4.53;2.17;;;18.10;99.90;;;18.87;100.00;98766.88;4941492;28;20490;-80
2022/07/11 05:31:39;;;;;;;3.30;1.80;;;18.10;99.90;;;18.90;100.00;98770.91;4926467;29;20505;-79
2022/07/11 05:34:09;;;;;;;4.10;1.60;;;18.20;99.90;;;18.91;100.00;98773.34;4927131;29;20632;-80
2022/07/11 05:36:40;;;;;;;1.80;1.40;;;18.20;99.90;;;18.94;100.00;98766.78;4924973;29;20628;-79
2022/07/11 05:39:09;;;;;;;3.30;1.90;;;18.20;99.90;;;18.97;100.00;98776.94;4926362;29;20470;-80
2022/07/11 05:41:42;;;;;;;4.10;2.17;;;18.30;99.90;;;18.99;100.00;98777.50;4925450;29;20477;-79
2022/07/11 05:44:10;;;;;;;3.73;1.90;;;18.30;99.90;;;19.02;100.00;98774.44;4926789;29;20466;-79
2022/07/11 05:46:40;;;;;;;4.53;2.63;;;18.40;99.90;;;19.04;100.00;98772.38;4923998;29;20463;-80
2022/07/11 05:49:12;;;;;;;3.00;1.80;;;18.30;99.90;;;19.08;100.00;98778.84;4927657;29;20462;-80
2022/07/11 05:51:42;;;;;;;6.70;1.97;;;18.30;99.80;;;19.10;100.00;98779.41;4924224;29;21049;-80
2022/07/11 05:54:12;;;;;;;4.20;2.00;;;18.40;99.70;;;19.13;100.00;98765.72;4926976;29;20506;-80
2022/07/11 05:56:43;;;;;;;3.60;1.70;;;18.50;99.70;;;19.17;100.00;98771.38;4926247;29;20470;-80
2022/07/11 05:59:14;;;;;;;5.80;2.20;;;18.40;99.60;;;19.19;100.00;98770.13;4926731;29;20961;-81
2022/07/11 06:01:46;;;;;;;4.03;1.77;;;18.40;99.60;;;19.19;100.00;98764.84;4923293;29;20902;-80
2022/07/11 06:04:17;;;;;;;16.43;8.67;;;18.30;99.70;;;19.22;100.00;98764.38;4927686;29;20473;-88
2022/07/11 06:06:47;;;;;;;8.10;3.40;;;18.50;99.60;;;19.27;100.00;98764.50;4926263;29;20538;-80
2022/07/11 06:09:16;;;;;;;4.10;2.23;;;18.50;99.60;;;19.32;100.00;98769.94;4926975;29;20459;-80
2022/07/11 06:11:46;;;;;;;2.80;1.97;;;18.60;99.50;;;19.33;100.00;98763.59;4921284;29;20596;-79
2022/07/11 06:14:16;;;;;;;2.13;1.70;;;18.70;99.30;;;19.36;100.00;98771.13;4927367;29;20954;-79
2022/07/11 06:16:45;;;;;;;1.70;1.60;;;18.70;99.40;;;19.40;100.00;98769.63;4924029;29;20526;-80
2022/07/11 06:19:15;;;;;;;3.17;1.77;;;18.70;99.40;;;19.41;100.00;98773.94;4926452;29;20467;-80
2022/07/11 06:21:45;;;;;;;3.67;2.27;;;18.80;99.20;;;19.43;100.00;98774.53;4924505;29;20510;-80
2022/07/11 06:24:14;;;;;;;2.57;1.77;;;18.80;99.30;;;19.47;100.00;98780.19;4927250;29;20470;-80
2022/07/11 06:26:45;;;;;;;2.93;1.63;;;18.80;99.30;;;19.49;100.00;98770.97;4924612;29;21050;-80
2022/07/11 06:29:15;;;;;;;2.30;1.90;;;18.90;99.30;;;19.51;100.00;98779.50;4924927;29;20461;-80
2022/07/11 06:31:44;;;;;;;4.00;1.73;;;18.90;99.30;;;19.54;100.00;98771.06;4923438;29;20585;-80
2022/07/11 06:34:16;;;;;;;2.40;1.47;;;18.90;99.30;;;19.59;100.00;98773.06;4924678;29;21029;-80
2022/07/11 06:36:45;;;;;;;9.30;5.07;;;18.80;99.40;;;19.63;100.00;98778.72;4927912;29;20477;-79
2022/07/11 06:39:15;;;;;;;8.43;3.83;;;19.00;99.30;;;19.65;100.00;98768.69;4907910;29;20470;-79
2022/07/11 06:41:46;;;;;;;5.60;1.83;;;19.00;99.10;;;19.70;100.00;98774.94;4926953;29;20470;-79
2022/07/11 06:44:17;;;;;;;4.40;1.70;;;18.90;99.30;;;19.74;100.00;98775.28;4926295;29;20518;-79
2022/07/11 06:46:48;;;;;;;4.20;1.60;;;19.00;99.30;;;19.78;100.00;98773.81;4928854;29;21125;-79
2022/07/11 06:49:18;;;;;;;3.60;1.67;;;19.00;99.10;;;19.82;100.00;98769.66;4928639;29;21219;-80
2022/07/11 06:51:50;;;;;;;3.17;1.70;;;19.00;99.40;;;19.85;100.00;98770.03;4927038;29;20494;-79
2022/07/11 06:54:21;;;;;;;5.10;2.30;;;19.10;99.10;;;19.91;100.00;98768.28;4928128;29;20473;-79
2022/07/11 06:56:52;;;;;;;3.60;1.80;;;19.20;99.00;;;19.91;100.00;98768.28;4927464;29;20474;-80
2022/07/11 06:59:23;;;;;;;3.23;1.87;;;19.20;98.80;;;19.91;100.00;98763.78;4929440;29;21244;-79
2022/07/11 07:01:54;;;;;;;4.20;1.90;;;19.00;98.80;;;20.00;100.00;98766.91;4931764;29;20471;-79
2022/07/11 07:04:24;;;;;;;2.87;1.50;;;19.20;98.90;;;20.06;100.00;98773.97;4930223;29;20491;-80
2022/07/11 07:06:55;;;;;;;2.20;1.67;;;19.20;98.80;;;20.10;100.00;98775.09;4932352;29;20498;-79
2022/07/11 07:09:26;;;;;;;1.63;1.10;;;19.30;98.80;;;20.16;99.79;98773.41;4930895;29;20503;-80
2022/07/11 07:11:57;;;;;;;3.00;1.50;;;19.30;98.70;;;20.21;99.30;98760.22;4928926;29;20504;-79
2022/07/11 07:14:28;;;;;;;2.60;1.67;;;19.40;98.70;;;20.18;98.32;98761.50;4930349;29;20462;-80
2022/07/11 07:16:59;;;;;;;3.20;1.50;;;19.40;98.50;;;20.22;98.89;98760.00;4931269;29;20474;-79
2022/07/11 07:19:30;;;;;;;1.30;1.20;;;19.50;98.60;;;20.27;98.96;98762.78;4930605;29;20989;-79
2022/07/11 07:22:01;;;;;;;2.60;1.40;;;19.40;98.60;;;20.33;99.90;98748.59;4931023;29;20558;-80
2022/07/11 07:24:31;;;;;;;14.27;2.13;;;19.60;98.90;;;20.35;98.68;98761.63;4925885;29;20470;-79
2022/07/11 07:27:03;;;;;;;3.10;1.60;;;19.70;98.60;;;20.40;98.52;98761.75;4928738;29;20474;-80
2022/07/11 07:29:33;;;;;;;3.17;1.30;;;19.60;98.40;;;20.45;98.63;98760.00;4941841;28;20469;-79
2022/07/11 07:32:02;;;;;;;6.60;1.50;;;19.70;98.70;;;20.46;98.26;98756.31;4928594;29;20526;-80
2022/07/11 07:34:33;;;;;;;2.53;1.50;;;19.70;98.50;;;20.51;98.50;98763.59;4930189;29;20569;-87
2022/07/11 07:37:04;;;;;;;5.57;2.90;;;19.80;98.60;;;20.55;98.28;98757.56;4928034;29;20466;-79
2022/07/11 07:39:34;;;;;;;4.03;2.20;;;19.70;98.40;;;20.57;97.08;98758.16;4931994;29;20462;-79
2022/07/11 07:42:07;;;;;;;2.50;1.33;;;19.80;98.30;;;20.59;97.04;98765.88;4930278;29;20475;-80
2022/07/11 07:44:38;;;;;;;5.40;1.40;;;19.80;98.40;;;20.64;96.90;98765.19;4931808;29;20878;-79
2022/07/11 07:47:08;;;;;;;4.73;1.30;;;19.80;98.50;;;20.67;97.13;98770.03;4931034;29;20463;-79
2022/07/11 07:49:38;;;;;;;3.40;1.40;;;19.90;98.30;;;20.68;97.25;98761.84;4931564;29;20459;-79
2022/07/11 07:52:09;;;;;;;2.60;1.40;;;20.00;98.30;;;20.71;97.26;98761.38;4929456;29;20498;-79
2022/07/11 07:54:39;;;;;;;2.70;1.40;;;20.00;98.50;;;20.79;97.37;98760.19;4931954;29;20463;-79
2022/07/11 07:57:10;;;;;;;1.93;1.20;;;20.00;98.60;;;20.85;97.64;98769.88;4932297;29;20517;-79
2022/07/11 07:59:40;;;;;;;1.03;0.80;;;20.00;98.90;;;20.87;96.95;98762.47;4930986;29;20470;-79
2022/07/11 08:02:10;;;;;;;2.80;1.00;;;20.10;98.30;;;20.90;95.39;98773.44;4929765;29;20477;-79
2022/07/11 08:04:40;;;;;;;2.63;1.00;;;20.20;98.10;;;20.90;95.72;98773.44;4931475;29;20933;-79
2022/07/11 08:07:10;;;;;;;2.23;1.00;;;20.20;98.20;;;20.93;96.13;98769.53;4933202;29;21428;-80
2022/07/11 08:09:40;;;;;;;1.40;0.90;;;20.30;98.30;;;20.96;94.98;98772.50;4930326;29;20477;-80
2022/07/11 08:12:11;;;;;;;1.10;0.90;;;20.20;98.10;;;20.94;95.32;98771.94;4929302;29;20588;-79
2022/07/11 08:14:42;;;;;;;2.27;1.20;;;20.20;98.20;;;20.95;95.96;98780.72;4930396;29;20490;-79
2022/07/11 08:17:11;;;;;;;1.87;1.50;;;20.10;98.30;;;20.97;95.63;98774.13;4931036;29;20503;-79
2022/07/11 08:19:42;;;;;;;2.53;1.00;;;20.30;98.20;;;21.03;96.07;98783.03;4930521;29;20509;-79
2022/07/11 08:22:12;;;;;;;1.20;1.00;;;20.40;98.30;;;21.03;96.31;98788.34;4928247;29;20543;-80
2022/07/11 08:24:42;;;;;;;3.10;1.10;;;20.20;98.30;;;21.02;95.34;98786.72;4930585;29;20474;-80
2022/07/11 08:27:13;;;;;;;1.70;1.23;;;20.20;98.10;;;20.98;95.12;98797.03;4932145;29;20490;-80
2022/07/11 08:30:04;;;;;;;2.43;1.30;;;20.10;98.10;;;21.00;96.02;98791.44;4928565;29;20458;-79
2022/07/11 08:32:33;;;;;;;1.63;1.20;;;20.10;98.50;;;21.04;95.86;98796.06;4928821;29;20509;-80
2022/07/11 08:35:05;;;;;;;2.60;1.67;;;20.20;98.40;;;21.08;95.60;98796.41;4932685;29;20494;-80
2022/07/11 08:37:36;;;;;;;4.90;1.80;;;20.20;98.40;;;21.05;94.73;98797.69;4928663;29;20585;-80
2022/07/11 08:40:09;;;;;;;4.40;2.00;;;20.20;98.20;;;20.98;94.27;98794.38;4930271;29;20451;-80
2022/07/11 08:42:44;;;;;;;3.00;1.90;;;20.10;98.30;;;20.99;94.66;98792.53;4930667;29;21004;-80
2022/07/11 08:45:16;;;;;;;2.07;1.73;;;20.20;98.20;;;20.99;95.30;98798.66;4929605;29;20471;-79
2022/07/11 08:47:47;;;;;;;3.57;2.17;;;20.10;98.40;;;20.99;95.28;98793.31;4930448;29;20977;-80
2022/07/11 08:50:16;;;;;;;3.07;2.07;;;20.10;98.40;;;20.98;95.21;98796.22;4930557;29;20467;-80
2022/07/11 08:52:46;;;;;;;4.73;2.07;;;20.10;98.30;;;20.95;95.49;98791.38;4930091;29;20537;-80
2022/07/11 08:55:18;;;;;;;2.50;1.87;;;20.10;98.40;;;20.95;95.96;98796.69;4929531;29;20517;-80
2022/07/11 08:57:49;;;;;;;2.87;1.90;;;20.00;98.40;;;20.99;95.71;98800.50;4930142;29;20474;-80
2022/07/11 09:00:19;;;;;;;2.53;2.17;;;20.10;98.40;;;21.01;95.35;98795.75;4930673;29;20554;-80
2022/07/11 09:02:49;;;;;;;3.77;2.00;;;20.20;98.30;;;21.08;95.11;98799.06;4930289;29;20534;-80
2022/07/11 09:05:20;;;;;;;3.07;2.00;;;20.20;98.30;;;21.07;94.41;98790.28;4928832;29;20458;-80
2022/07/11 09:07:52;;;;;;;2.00;1.80;;;20.30;98.10;;;21.07;95.05;98787.63;4927236;29;20467;-79
2022/07/11 09:10:21;;;;;;;2.40;2.20;;;20.30;98.30;;;21.10;95.24;98789.06;4928548;29;20478;-79
2022/07/11 09:13:04;;;;;;;4.60;1.93;;;20.30;98.30;;;21.08;95.40;98797.22;4928474;29;20957;-80
2022/07/11 09:15:38;;;;;;;3.50;2.27;;;20.20;98.30;;;21.17;95.36;98788.91;4930456;29;20451;-80
2022/07/11 09:18:34;;;;;;;3.60;2.33;;;20.30;98.50;;;21.23;95.87;98804.72;4930426;29;20541;-79
2022/07/11 09:26:56;;;;;;;5.20;2.20;;;20.50;98.30;;;21.31;95.00;98785.72;4887183;29;20546;-79
2022/07/11 09:29:27;;;;;;;2.97;2.00;;;20.60;98.30;;;21.34;94.55;98790.59;4912061;29;20486;-80
2022/07/11 09:31:58;;;;;;;5.30;1.80;;;20.60;98.10;;;21.30;94.44;98781.47;4926653;29;20473;-79
2022/07/11 09:34:28;;;;;;;6.50;1.77;;;20.60;98.10;;;21.37;94.55;98783.97;4928832;29;21068;-84
2022/07/11 09:36:59;;;;;;;13.27;6.50;;;20.70;98.20;;;21.40;94.33;98778.16;4929533;29;20487;-80
2022/07/11 09:39:31;;;;;;;3.67;2.30;;;20.50;98.20;;;21.48;94.52;98780.47;4923368;29;20483;-79
2022/07/11 09:42:01;;;;;;;3.10;2.00;;;20.70;98.30;;;21.53;94.13;98777.88;4927440;29;21190;-80
2022/07/11 09:44:34;;;;;;;4.83;2.23;;;20.70;98.20;;;21.61;93.63;98784.66;4924976;29;20538;-80
2022/07/11 09:47:10;;;;;;;6.17;1.80;;;20.80;98.10;;;21.68;92.63;98780.00;4926154;29;20474;-79
2022/07/11 09:49:41;;;;;;;2.53;2.00;;;20.90;97.90;;;21.74;92.59;98781.69;4927853;29;20462;-79
2022/07/11 09:52:15;;;;;;;3.20;2.20;;;21.00;97.80;;;21.76;91.63;98771.63;4923905;29;21119;-79
2022/07/11 09:54:56;;;;;;;2.80;2.20;;;21.00;97.70;;;21.74;90.70;98773.69;4926662;29;20501;-80
2022/07/11 09:57:34;;;;;;;6.00;2.20;;;21.00;97.50;;;21.82;91.50;98776.78;4926566;29;20454;-80
2022/07/11 10:00:09;;;;;;;3.93;2.07;;;21.10;97.80;;;21.80;90.69;98776.22;4926522;29;20465;-80
2022/07/11 10:02:39;;;;;;;3.70;2.20;;;21.00;97.50;;;21.88;91.26;98772.34;4921720;29;20485;-80
2022/07/11 10:05:11;;;;;;;3.03;1.80;;;21.00;97.90;;;21.94;91.26;98764.22;4924470;29;20517;-80
2022/07/11 10:07:42;;;;;;;13.90;2.37;;;21.10;97.80;;;22.03;90.84;98767.31;4926515;29;20545;-80
2022/07/11 10:10:13;;;;;;;2.43;1.97;;;21.20;97.70;;;22.05;89.26;98766.00;4924698;29;21001;-80
2022/07/11 10:12:46;;;;;;;2.17;1.60;;;21.20;97.40;;;22.06;90.22;98766.81;4926078;29;20494;-80
2022/07/11 10:15:21;;;;;;;6.10;1.73;;;21.30;97.70;;;22.05;89.74;98770.50;4927213;29;20469;-79
2022/07/11 10:18:11;;;;;;;3.00;1.63;;;21.30;97.50;;;22.07;89.91;98774.53;4926590;29;20561;-79
2022/07/11 10:20:54;;;;;;;2.63;1.90;;;21.30;97.40;;;22.16;89.47;98772.28;4925846;29;20467;-80
2022/07/11 10:23:35;;;;;;;2.90;2.40;;;21.30;97.30;;;22.20;89.69;98773.44;4922505;29;20512;-79
2022/07/11 10:26:14;;;;;;;4.13;2.50;;;21.40;97.50;;;22.27;88.83;98774.06;4925866;29;20462;-80
2022/07/11 10:28:49;;;;;;;4.10;2.10;;;21.40;97.30;;;22.29;87.68;98766.63;4926192;29;20471;-80
2022/07/11 10:31:23;;;;;;;3.50;2.13;;;21.40;97.20;;;22.37;87.38;98766.22;4924195;29;20864;-80
2022/07/11 10:34:18;;;;;;;4.77;2.40;;;21.60;97.00;;;22.38;86.06;98770.50;4926650;29;20494;-79
2022/07/11 10:36:49;;;;;;;4.03;2.20;;;21.70;96.60;;;22.37;86.36;98774.22;4932175;29;20462;-79
2022/07/11 10:39:24;;;;;;;3.27;2.30;;;21.60;96.80;;;22.39;86.35;98784.59;4927665;29;20478;-79
2022/07/11 10:41:55;;;;;;;3.30;2.30;;;21.70;96.80;;;22.45;86.36;98781.81;4926487;29;20478;-79